ADDS METAR Data INFO
IDs: Format: Raw Decoded Include TAF

Data at: 0256 UTC 17 Jan 2018

KSQL 170247Z 29004KT 8SM HZ BKN015 BKN023 OVC033 14/13 A3021
KSQL 170147Z 36005KT 8SM HZ BKN015 BKN023 OVC033 14/13 A3019
KSQL 170050Z 30005KT 6SM HZ BKN021 OVC200 15/13 A3019
KSQL 162350Z 30005KT 5SM HZ OVC019 15/12 A3019
KSQL 162247Z 31006KT 5SM HZ BKN015 15/12 A3019
KSQL 162158Z 01006KT 5SM HZ BKN028 OVC070 15/12 A3019
KSQL 162047Z 35005KT 5SM HZ BKN016 BKN042 BKN070 16/12 A3021
KSQL 161955Z 34005KT 5SM HZ FEW012 SCT042 BKN120 15/12 A3023
KSQL 161850Z VRB05KT 7SM HZ SCT012 BKN120 14/11 A3024
KSQL 161750Z VRB03KT 7SM HZ SCT012 BKN035 14/11 A3025
KSQL 161650Z VRB04KT 7SM HZ SCT014 BKN035 13/12 A3022
KSQL 161550Z 00000KT 7SM HZ BKN017 BKN031 13/12 A3020
KSQL 161455Z AUTO 00000KT 9SM BKN023 OVC033 13/12 A3019 RMK AO2
KSQL 161447Z VRB03KT 6SM HZ BKN023 OVC032 13/12 A3018
KSQL 161435Z AUTO 21003KT 9SM OVC023 13/11 A3018 RMK AO2
KSQL 161415Z AUTO 15003KT 7SM BKN023 BKN032 OVC039 12/12 A3018 RMK AO2
KSQL 161355Z AUTO 12003KT 5SM BR BKN021 OVC032 12/12 A3018 RMK AO2
KSQL 161335Z AUTO 00000KT 8SM OVC021 13/11 A3018 RMK AO2
KSQL 161315Z AUTO 00000KT 8SM OVC019 13/11 A3018 RMK AO2
KSQL 161255Z AUTO 00000KT 7SM OVC019 13/12 A3018 RMK AO2
KSQL 161235Z AUTO 00000KT 6SM BR OVC019 12/12 A3017 RMK AO2
KSQL 161215Z AUTO 00000KT 5SM BR OVC019 12/12 A3017 RMK AO2
KSQL 161155Z AUTO 09003KT 5SM BR OVC019 12/12 A3017 RMK AO2
KSQL 161135Z AUTO 00000KT 8SM OVC021 13/12 A3017 RMK AO2
KSQL 161115Z AUTO 29003KT 9SM SCT017 OVC023 13/12 A3017 RMK AO2
KSQL 161055Z AUTO 00000KT 7SM OVC017 13/12 A3017 RMK AO2
KSQL 161035Z AUTO 05003KT 5SM BR BKN019 12/12 A3016 RMK AO2
KSQL 161015Z AUTO 00000KT 10SM BKN017 OVC023 13/11 A3016 RMK AO2
KSQL 160955Z AUTO 00000KT 10SM OVC017 13/11 A3015 RMK AO2
KSQL 160935Z AUTO 00000KT 9SM BKN013 OVC019 13/11 A3015 RMK AO2
KSQL 160915Z AUTO 11003KT 9SM OVC019 13/11 A3016 RMK AO2
KSQL 160855Z AUTO 19003KT 10SM BKN019 BKN026 13/11 A3016 RMK AO2
KSQL 160835Z AUTO 00000KT 9SM SCT019 13/11 A3017 RMK AO2
KSQL 160815Z AUTO 19003KT 8SM BKN019 BKN029 BKN033 13/12 A3018 RMK AO2
KSQL 160755Z AUTO 00000KT 8SM SCT019 BKN029 OVC033 13/12 A3018 RMK AO2
KSQL 160735Z AUTO 00000KT 9SM OVC019 13/11 A3017 RMK AO2
KSQL 160715Z AUTO 00000KT 10SM BKN021 BKN026 OVC033 13/11 A3017 RMK AO2
KSQL 160655Z AUTO 00000KT 9SM SCT025 BKN033 OVC039 13/10 A3016 RMK AO2
KSQL 160635Z AUTO 19003KT 9SM BKN025 13/11 A3014 RMK AO2
KSQL 160615Z AUTO 00000KT 8SM SCT025 BKN036 BKN049 13/10 A3013 RMK AO2
KSQL 160555Z AUTO 00000KT 7SM BKN027 BKN034 12/10 A3013 RMK AO2
KSQL 160535Z AUTO 00000KT 7SM OVC027 12/10 A3012 RMK AO2
KSQL 160515Z AUTO 00000KT 6SM BR BKN027 11/10 A3013 RMK AO2
KSQL 160447Z 00000KT 6SM HZ SCT050 BKN150 13/10 A3013 RMK LAST
KSQL 160347Z 00000KT 6SM HZ SCT060 BKN150 13/10 A3011
KSQL 160249Z 00000KT 6SM HZ SCT065 BKN150 OVC200 12/10 A3011
KSQL 160147Z 26005KT 6SM HZ BKN080 BKN150 OVC200 14/12 A3010
KSQL 160049Z 00000KT 6SM HZ BKN150 OVC200 14/12 A3009
KSQL 152356Z 01006KT 5SM HZ BKN150 OVC200 15/12 A3008
KSQL 152259Z COR 32004KT 3SM HZ BR BKN150 OVC200 15/10 A3010
KSQL 152147Z 00000KT 3SM HZ BR SCT035 BKN150 13/10 A3008
KSQL 152047Z 36003KT 3SM HZ BR SCT035 BKN150 13/10 A3011
KSQL 151950Z VRB03KT 3SM HZ BR SCT035 BKN150 12/10 A3013
KSQL 151855Z VRB03KT 3SM HZ BR FEW006 SCT055 BKN150 12/09 A3015
KSQL 151755Z 34003KT 3SM HZ BR FEW006 SCT055 BKN150 12/10 A3014
KSQL 151650Z 00000KT 2 1/2SM HZ BR FEW006 SCT050 BKN150 10/10 A3011
KSQL 151555Z 19005KT 2SM HZ BR FEW006 BKN150 10/09 A3009
KSQL 151510Z VRB03KT 4SM HZ BR FEW006 SCT013 BKN180 09/09 A3010